createdAt,value
2023-01-04T00:03:40.677Z,10.98
2023-01-04T00:08:39.007Z,10.05
2023-01-04T00:13:38.654Z,11.40
2023-01-04T00:18:37.163Z,11.68
2023-01-04T00:23:35.317Z,10.38
2023-01-04T00:28:33.491Z,10.70
2023-01-04T00:33:33.112Z,11.00
2023-01-04T00:38:31.324Z,10.35
2023-01-04T00:43:29.536Z,11.35
2023-01-04T00:48:27.905Z,11.85
2023-01-04T00:53:27.447Z,10.60
2023-01-04T00:58:25.628Z,10.88
2023-01-04T01:03:23.959Z,10.38
2023-01-04T01:08:28.039Z,10.82
2023-01-04T01:13:27.576Z,11.30
2023-01-04T01:18:25.718Z,11.60
2023-01-04T01:23:23.874Z,11.38
2023-01-04T01:28:22.055Z,10.88
2023-01-04T01:33:21.590Z,11.80
2023-01-04T01:38:19.757Z,12.30
2023-01-04T01:43:18.835Z,11.07
2023-01-04T01:48:19.586Z,11.90
2023-01-04T01:53:19.224Z,11.32
2023-01-04T01:58:23.008Z,11.98
2023-01-04T02:03:23.342Z,10.73
2023-01-04T02:08:24.346Z,12.25
2023-01-04T02:13:49.760Z,14.80
2023-01-04T02:18:55.685Z,11.02
2023-01-04T02:24:06.728Z,10.90
2023-01-04T02:29:23.507Z,11.00
2023-01-04T02:34:27.552Z,12.02
2023-01-04T02:39:30.387Z,20.65
2023-01-04T02:44:49.249Z,22.83
2023-01-04T02:50:06.384Z,23.15
2023-01-04T02:55:06.499Z,22.75
2023-01-04T03:00:10.659Z,17.45
2023-01-04T03:05:31.170Z,16.77
2023-01-04T03:10:41.420Z,15.63
2023-01-04T03:15:41.185Z,13.77
2023-01-04T03:20:41.492Z,11.82
2023-01-04T03:25:59.325Z,13.07
2023-01-04T03:31:17.775Z,15.55
2023-01-04T03:36:21.146Z,16.35
2023-01-04T03:41:38.629Z,13.13
2023-01-04T03:46:57.590Z,13.68
2023-01-04T03:51:58.819Z,12.82
2023-01-04T03:56:57.852Z,15.32
2023-01-04T04:01:56.099Z,14.60
2023-01-04T04:07:11.684Z,13.02
2023-01-04T04:17:09.229Z,25.52
2023-01-04T04:22:07.502Z,28.23
2023-01-04T04:27:05.643Z,35.53
2023-01-04T04:32:03.879Z,22.55
2023-01-04T04:37:03.560Z,14.95
2023-01-04T04:42:01.765Z,13.25
2023-01-04T04:47:00.017Z,12.52
2023-01-04T04:51:58.201Z,12.68
2023-01-04T04:56:57.774Z,14.07
2023-01-04T05:01:56.072Z,13.88
2023-01-04T05:06:54.319Z,13.13
2023-01-04T05:12:09.764Z,13.77
2023-01-04T05:22:07.413Z,14.73
2023-01-04T05:27:05.564Z,13.98
2023-01-04T05:32:03.794Z,14.43
2023-01-04T05:37:02.094Z,14.93
2023-01-04T05:42:19.257Z,14.60
2023-01-04T05:47:17.487Z,28.02
2023-01-04T05:52:15.723Z,18.92
2023-01-04T05:57:16.365Z,16.27
2023-01-04T06:02:15.961Z,17.52
2023-01-04T06:07:14.841Z,40.00
2023-01-04T06:12:13.144Z,32.13
2023-01-04T06:17:12.781Z,15.93
2023-01-04T06:22:11.311Z,17.30
2023-01-04T06:27:09.516Z,16.33
2023-01-04T06:32:07.717Z,15.68
2023-01-04T06:37:07.280Z,18.27
2023-01-04T06:42:06.820Z,16.42
2023-01-04T06:47:05.527Z,19.95
2023-01-04T06:52:03.667Z,86.53
2023-01-04T06:57:03.196Z,31.88
2023-01-04T07:02:01.476Z,18.67
2023-01-04T07:06:59.729Z,15.95
2023-01-04T07:11:58.329Z,16.67
2023-01-04T07:16:57.853Z,17.45
2023-01-04T07:21:56.123Z,17.63
2023-01-04T07:26:54.310Z,39.47
2023-01-04T07:31:53.330Z,37.50
2023-01-04T07:36:52.891Z,53.03
2023-01-04T07:41:51.291Z,30.33
2023-01-04T07:46:52.129Z,26.85
2023-01-04T07:51:51.041Z,18.88
2023-01-04T07:56:50.601Z,19.17
2023-01-04T08:01:49.340Z,19.02
2023-01-04T08:06:47.754Z,20.38
2023-01-04T08:11:46.077Z,19.23
2023-01-04T08:16:45.615Z,65.32
2023-01-04T08:21:44.088Z,63.65
2023-01-04T08:26:42.589Z,48.83
2023-01-04T08:31:40.992Z,41.05
2023-01-04T08:36:47.505Z,41.67
2023-01-04T08:42:19.297Z,59.25
2023-01-04T08:47:13.424Z,51.33
2023-01-04T08:52:15.868Z,58.40
2023-01-04T08:57:14.119Z,50.40
2023-01-04T09:02:20.715Z,46.30
2023-01-04T09:07:20.417Z,64.78
2023-01-04T09:12:18.601Z,33.50
2023-01-04T09:17:16.798Z,35.92
2023-01-04T09:22:15.013Z,22.95
2023-01-04T09:27:14.579Z,24.88
2023-01-04T09:32:16.531Z,35.45
2023-01-04T09:37:15.315Z,22.55
2023-01-04T09:42:18.350Z,29.50
2023-01-04T09:47:18.232Z,56.47
2023-01-04T09:52:19.266Z,30.40
2023-01-04T09:57:24.026Z,27.90
2023-01-04T10:02:24.627Z,25.80
2023-01-04T10:07:28.351Z,31.02
2023-01-04T10:12:43.083Z,25.30
2023-01-04T10:23:10.035Z,36.72
2023-01-04T10:28:17.481Z,39.75
2023-01-04T10:33:16.755Z,79.05
2023-01-04T10:38:17.998Z,74.95
2023-01-04T10:43:22.839Z,40.67
2023-01-04T10:48:23.979Z,33.38
2023-01-04T10:53:25.081Z,33.08
2023-01-04T10:58:27.712Z,25.52
2023-01-04T11:03:27.857Z,24.48
2023-01-04T11:08:30.138Z,38.08
2023-01-04T11:13:29.911Z,27.50
2023-01-04T11:18:28.174Z,23.70
2023-01-04T11:23:26.495Z,26.80
2023-01-04T11:28:26.858Z,23.15
2023-01-04T11:33:26.599Z,39.08
2023-01-04T11:38:25.468Z,27.63
2023-01-04T11:43:24.200Z,30.00
2023-01-04T11:48:31.988Z,29.48
2023-01-04T11:53:31.978Z,34.03
2023-01-04T11:58:31.710Z,31.90
2023-01-04T12:03:33.281Z,37.47
2023-01-04T12:08:32.708Z,44.55
2023-01-04T12:13:31.409Z,43.92
2023-01-04T12:18:32.151Z,27.30
2023-01-04T12:23:30.755Z,24.85
2023-01-04T12:28:33.422Z,24.73
2023-01-04T12:33:40.468Z,33.30
2023-01-04T12:38:57.092Z,41.78
2023-01-04T12:43:56.456Z,30.98
2023-01-04T12:49:05.086Z,24.10
2023-01-04T12:54:04.408Z,22.67
2023-01-04T12:59:25.139Z,25.15
2023-01-04T13:04:40.425Z,23.20
2023-01-04T13:09:46.529Z,21.53
2023-01-04T13:14:49.337Z,23.10
2023-01-04T13:19:49.398Z,23.02
2023-01-04T13:24:48.543Z,23.73
2023-01-04T13:29:47.262Z,20.38
2023-01-04T13:34:49.928Z,17.48
2023-01-04T13:39:50.592Z,18.95
2023-01-04T13:50:25.045Z,15.32
2023-01-04T13:55:27.317Z,17.88
2023-01-04T14:00:28.022Z,13.70
2023-01-04T14:05:26.217Z,11.07
2023-01-04T14:10:25.781Z,18.23
2023-01-04T14:15:25.107Z,20.52
2023-01-04T14:20:43.928Z,16.45
2023-01-04T14:25:48.410Z,14.13
2023-01-04T14:30:47.274Z,13.98
2023-01-04T14:35:48.894Z,17.40
2023-01-04T14:40:49.652Z,17.40
2023-01-04T14:45:47.845Z,14.27
2023-01-04T14:50:46.059Z,18.13
2023-01-04T14:55:44.245Z,15.05
2023-01-04T15:00:43.792Z,14.85
2023-01-04T15:05:42.629Z,13.82
2023-01-04T15:10:40.784Z,41.85
2023-01-04T15:15:39.001Z,18.02
2023-01-04T15:20:39.586Z,24.25
2023-01-04T15:25:47.186Z,32.50
2023-01-04T15:30:45.708Z,22.67
2023-01-04T15:35:46.023Z,19.35
2023-01-04T15:40:51.173Z,50.72
2023-01-04T15:45:49.360Z,27.98
2023-01-04T15:50:48.901Z,27.23
2023-01-04T15:55:47.089Z,20.67
2023-01-04T16:00:48.074Z,22.38
2023-01-04T16:05:50.544Z,26.85
2023-01-04T16:10:48.718Z,26.23
2023-01-04T16:15:46.920Z,21.13
2023-01-04T16:20:45.103Z,18.50
2023-01-04T16:25:44.734Z,21.58
2023-01-04T16:30:42.922Z,29.88
2023-01-04T16:35:41.190Z,29.08
2023-01-04T16:40:39.445Z,27.77
2023-01-04T16:45:39.063Z,63.63
2023-01-04T16:50:40.207Z,69.18
2023-01-04T16:55:38.386Z,35.95
2023-01-04T17:00:36.605Z,56.85
2023-01-04T17:05:39.653Z,76.57
2023-01-04T17:10:38.628Z,78.78
2023-01-04T17:15:44.618Z,71.30
2023-01-04T17:20:44.506Z,42.63
2023-01-04T17:25:42.670Z,53.92
2023-01-04T17:30:41.733Z,46.20
2023-01-04T17:35:40.676Z,81.30
2023-01-04T17:40:40.228Z,70.40
2023-01-04T17:45:38.501Z,58.90
2023-01-04T17:50:36.818Z,55.17
2023-01-04T17:55:34.992Z,51.88
2023-01-04T18:00:34.550Z,53.42
2023-01-04T18:05:45.012Z,39.13
2023-01-04T18:11:06.798Z,38.40
2023-01-04T18:16:23.800Z,34.25
2023-01-04T18:21:28.516Z,64.05
2023-01-04T18:26:33.010Z,64.38
2023-01-04T18:31:36.612Z,55.03
2023-01-04T18:36:40.711Z,55.58
2023-01-04T18:41:40.743Z,57.95
2023-01-04T18:46:41.527Z,64.95
2023-01-04T18:51:39.679Z,85.65
2023-01-04T18:56:37.918Z,80.68
2023-01-04T19:01:36.287Z,85.72
2023-01-04T19:06:35.879Z,75.05
2023-01-04T19:11:34.089Z,65.50
2023-01-04T19:16:32.344Z,60.55
2023-01-04T19:21:30.670Z,42.08
2023-01-04T19:26:30.192Z,33.58
2023-01-04T19:31:28.387Z,31.52
2023-01-04T19:36:26.605Z,29.70
2023-01-04T19:41:33.376Z,24.40
2023-01-04T19:46:33.715Z,23.80
2023-01-04T19:51:31.957Z,19.50
2023-01-04T19:56:30.129Z,21.30
2023-01-04T20:01:28.533Z,16.95
2023-01-04T20:06:29.221Z,17.90
2023-01-04T20:11:27.402Z,20.70
2023-01-04T20:16:25.636Z,20.73
2023-01-04T20:21:23.935Z,26.00
2023-01-04T20:26:23.555Z,24.10
2023-01-04T20:31:21.864Z,22.98
2023-01-04T20:36:20.972Z,23.77
2023-01-04T20:41:20.070Z,24.27
2023-01-04T20:46:20.334Z,24.33
2023-01-04T20:51:19.237Z,23.35
2023-01-04T20:56:18.405Z,24.55
2023-01-04T21:01:17.558Z,26.38
2023-01-04T21:06:18.321Z,25.75
2023-01-04T21:11:16.599Z,44.22
2023-01-04T21:16:15.475Z,94.25
2023-01-04T21:21:14.941Z,23.70
2023-01-04T21:26:15.394Z,22.77
2023-01-04T21:31:14.734Z,20.65
2023-01-04T21:36:13.775Z,29.00
2023-01-04T21:41:12.428Z,25.00
2023-01-04T21:46:13.049Z,27.33
2023-01-04T21:51:11.389Z,33.92
2023-01-04T21:56:11.084Z,32.35
2023-01-04T22:01:09.850Z,36.72
2023-01-04T22:06:09.971Z,45.50
2023-01-04T22:11:08.167Z,49.88
2023-01-04T22:16:07.015Z,41.65
2023-01-04T22:21:06.081Z,46.97
2023-01-04T22:26:05.725Z,38.95
2023-01-04T22:31:04.928Z,53.03
2023-01-04T22:36:06.468Z,38.20
2023-01-04T22:41:09.062Z,67.10
2023-01-04T22:46:08.254Z,56.08
2023-01-04T22:51:07.687Z,51.97
2023-01-04T22:56:23.118Z,35.50
2023-01-04T23:01:23.363Z,27.10
2023-01-04T23:06:22.063Z,24.85
2023-01-04T23:11:20.261Z,22.98
2023-01-04T23:16:18.510Z,23.85
2023-01-04T23:21:18.115Z,26.17
2023-01-04T23:26:17.611Z,27.38
2023-01-04T23:31:17.483Z,29.70
2023-01-04T23:36:16.730Z,30.00
2023-01-04T23:41:16.380Z,27.60
2023-01-04T23:46:15.305Z,24.23
2023-01-04T23:51:13.673Z,22.80
2023-01-04T23:56:15.095Z,24.52
